Time;durP1;ratioP1;P1;durP2;ratioP2;P2;SDS_P1;SDS_P2;PMS_P1;PMS_P2;Temp;Humidity;BMP_temperature;BMP_pressure;BME280_temperature;BME280_humidity;BME280_pressure;Samples;Min_cycle;Max_cycle;Signal;HPM_P1;HPM_P2
2021/04/15 00:02:14;;;;;;;0.60;0.60;;;-0.80;99.90;;;;;;4990526;28;20670;-87
2021/04/15 00:04:40;;;;;;;0.60;0.60;;;-0.50;99.90;;;;;;4993244;28;20196;-87
2021/04/15 00:07:06;;;;;;;0.60;0.60;;;-0.60;99.90;;;;;;4995043;28;20510;-87
2021/04/15 00:09:33;;;;;;;0.60;0.60;;;-0.60;99.90;;;;;;4994206;28;20230;-87
2021/04/15 00:11:59;;;;;;;0.60;0.60;;;-0.70;99.90;;;;;;4994631;28;20210;-86
2021/04/15 00:14:26;;;;;;;0.60;0.60;;;-0.70;99.90;;;;;;4994283;28;20261;-86
2021/04/15 00:16:52;;;;;;;0.60;0.60;;;-0.70;99.90;;;;;;4993342;28;20617;-87
2021/04/15 00:19:19;;;;;;;0.60;0.60;;;-0.80;99.90;;;;;;4993373;28;20215;-86
2021/04/15 00:21:46;;;;;;;0.50;0.50;;;-0.80;99.90;;;;;;4993551;28;20209;-87
2021/04/15 00:24:12;;;;;;;0.60;0.60;;;-0.70;99.90;;;;;;4993290;28;20202;-86
2021/04/15 00:26:38;;;;;;;0.50;0.50;;;-0.80;99.90;;;;;;4993489;28;20214;-87
2021/04/15 00:29:05;;;;;;;0.60;0.60;;;-0.90;99.90;;;;;;4993309;28;20226;-87
2021/04/15 00:31:32;;;;;;;0.60;0.60;;;-0.90;99.90;;;;;;4993304;28;20352;-87
2021/04/15 00:33:58;;;;;;;0.60;0.60;;;-1.00;99.90;;;;;;4993761;28;20293;-86
2021/04/15 00:36:26;;;;;;;0.60;0.60;;;-1.30;99.90;;;;;;4993107;28;20202;-86
2021/04/15 00:38:53;;;;;;;0.60;0.60;;;-1.10;99.90;;;;;;4992838;28;20229;-86
2021/04/15 00:41:19;;;;;;;0.60;0.60;;;-1.60;99.90;;;;;;4992786;28;20584;-86
2021/04/15 00:43:46;;;;;;;0.55;0.55;;;-1.10;99.90;;;;;;4993292;28;20217;-86
2021/04/15 00:46:48;;;;;;;0.60;0.60;;;-1.30;99.90;;;;;;4992682;28;20202;-86
2021/04/15 00:49:18;;;;;;;0.60;0.60;;;-0.60;99.90;;;;;;4992679;28;20592;-86
2021/04/15 00:51:48;;;;;;;0.60;0.60;;;-0.70;99.90;;;;;;4993030;28;20245;-86
2021/04/15 00:54:35;;;;;;;0.60;0.60;;;-0.70;99.90;;;;;;4993175;28;20202;-86
2021/04/15 00:57:03;;;;;;;0.60;0.60;;;-0.80;99.90;;;;;;4992888;28;20207;-86
2021/04/15 00:59:31;;;;;;;0.50;0.50;;;-1.00;99.90;;;;;;4992686;28;20293;-87
2021/04/15 01:02:01;;;;;;;0.60;0.60;;;-0.80;99.90;;;;;;4992847;28;20213;-86
2021/04/15 01:04:28;;;;;;;0.60;0.60;;;-0.80;99.90;;;;;;4992706;28;20214;-87
2021/04/15 01:06:54;;;;;;;0.60;0.60;;;-0.90;99.90;;;;;;4992715;28;20202;-87
2021/04/15 01:09:22;;;;;;;0.60;0.60;;;-0.90;99.90;;;;;;4992349;28;20459;-87
2021/04/15 01:12:00;;;;;;;0.60;0.60;;;-0.90;99.90;;;;;;4992453;28;20203;-87
2021/04/15 01:14:48;;;;;;;0.60;0.60;;;-0.90;99.90;;;;;;4993036;28;20294;-87
2021/04/15 01:17:23;;;;;;;0.60;0.60;;;-0.90;99.90;;;;;;4993378;28;20207;-87
2021/04/15 01:20:40;;;;;;;0.60;0.60;;;-1.10;99.90;;;;;;4992663;28;20242;-87
2021/04/15 01:23:14;;;;;;;0.60;0.60;;;-1.00;99.90;;;;;;4992904;28;20217;-87
2021/04/15 01:26:14;;;;;;;0.60;0.60;;;-1.10;99.90;;;;;;4992233;28;20206;-87
2021/04/15 01:29:08;;;;;;;0.60;0.60;;;-1.00;99.90;;;;;;4992274;28;20226;-86
2021/04/15 01:31:46;;;;;;;0.60;0.60;;;-1.00;99.90;;;;;;4970886;28;20213;-87
2021/04/15 01:34:18;;;;;;;0.60;0.60;;;-1.00;99.90;;;;;;4992308;28;20202;-87
2021/04/15 01:36:51;;;;;;;0.60;0.60;;;-0.90;99.90;;;;;;4992653;28;20214;-87
2021/04/15 01:39:22;;;;;;;0.52;0.52;;;-1.00;99.90;;;;;;4992225;28;20616;-87
2021/04/15 01:41:53;;;;;;;0.60;0.60;;;-1.40;99.90;;;;;;4992140;28;20237;-87
2021/04/15 01:44:26;;;;;;;0.60;0.60;;;-0.90;99.90;;;;;;4991672;28;20215;-87
2021/04/15 01:46:59;;;;;;;0.60;0.60;;;-1.30;99.90;;;;;;4991635;28;20813;-86
2021/04/15 01:49:26;;;;;;;0.52;0.52;;;-1.10;99.90;;;;;;4991186;28;20264;-86
2021/04/15 01:51:54;;;;;;;0.60;0.60;;;-1.20;99.90;;;;;;4991792;28;20218;-86
2021/04/15 01:54:25;;;;;;;0.60;0.60;;;-1.10;99.90;;;;;;4991610;28;20218;-86
2021/04/15 01:56:57;;;;;;;0.60;0.60;;;-0.40;99.90;;;;;;4991212;28;20213;-86
2021/04/15 01:59:32;;;;;;;0.60;0.60;;;-1.20;99.90;;;;;;4991609;28;20268;-87
2021/04/15 02:02:05;;;;;;;0.57;0.57;;;-2.40;99.90;;;;;;4991605;28;20556;-87
2021/04/15 02:04:39;;;;;;;0.60;0.60;;;-1.30;99.90;;;;;;4991630;28;20210;-87
2021/04/15 02:07:10;;;;;;;0.60;0.60;;;-1.30;99.90;;;;;;4991557;28;20206;-87
2021/04/15 02:09:38;;;;;;;0.60;0.60;;;-1.40;99.90;;;;;;4991398;28;20237;-86
2021/04/15 02:12:08;;;;;;;0.52;0.52;;;-1.40;99.90;;;;;;4991101;28;20198;-86
2021/04/15 02:14:42;;;;;;;0.60;0.60;;;-1.10;99.90;;;;;;4991049;28;20210;-87
2021/04/15 02:17:11;;;;;;;0.60;0.60;;;-1.50;99.90;;;;;;4990809;28;20207;-86
2021/04/15 02:19:42;;;;;;;0.60;0.60;;;-1.20;99.90;;;;;;4990838;28;20213;-86
2021/04/15 02:22:16;;;;;;;0.60;0.60;;;-1.30;99.90;;;;;;4989173;28;20221;-85
2021/04/15 02:27:21;;;;;;;0.50;0.50;;;-1.30;99.90;;;;;;5745397;23;20225;-80
2021/04/15 02:29:53;;;;;;;0.60;0.60;;;-1.40;99.90;;;;;;4989922;28;20222;-81
2021/04/15 02:32:25;;;;;;;0.60;0.60;;;-1.50;99.90;;;;;;4981926;28;20221;-81
2021/04/15 02:34:57;;;;;;;0.50;0.50;;;-1.50;99.90;;;;;;4988091;28;20207;-80
2021/04/15 02:37:32;;;;;;;0.60;0.60;;;-1.40;99.90;;;;;;4980623;28;20571;-81
2021/04/15 02:40:03;;;;;;;0.60;0.60;;;-1.40;99.90;;;;;;4988899;28;20210;-80
2021/04/15 02:42:35;;;;;;;0.60;0.60;;;-1.50;99.90;;;;;;4989361;28;20202;-81
2021/04/15 02:45:17;;;;;;;0.57;0.57;;;-1.50;99.90;;;;;;4989188;28;20242;-80
2021/04/15 02:47:53;;;;;;;0.60;0.60;;;-1.50;99.90;;;;;;4989106;28;20210;-80
2021/04/15 02:50:22;;;;;;;0.57;0.57;;;-1.50;99.90;;;;;;4989245;28;20313;-80
2021/04/15 02:52:58;;;;;;;0.60;0.60;;;-1.50;99.90;;;;;;4989109;28;20684;-80
2021/04/15 02:55:28;;;;;;;0.52;0.52;;;-1.60;99.90;;;;;;4989024;28;20248;-80
2021/04/15 02:58:02;;;;;;;0.60;0.60;;;-1.60;99.90;;;;;;4988855;28;20210;-79
2021/04/15 03:00:32;;;;;;;0.60;0.60;;;-1.60;99.90;;;;;;4988802;28;20213;-81
2021/04/15 03:03:07;;;;;;;0.60;0.60;;;-1.60;99.90;;;;;;4988752;28;20635;-80
2021/04/15 03:05:38;;;;;;;0.60;0.60;;;-1.60;99.90;;;;;;4989326;28;20556;-80
2021/04/15 03:08:05;;;;;;;0.60;0.60;;;-1.70;99.90;;;;;;4988980;28;20218;-80
2021/04/15 03:10:34;;;;;;;0.60;0.60;;;-1.70;99.90;;;;;;4989005;28;20225;-80
2021/04/15 03:13:08;;;;;;;0.60;0.60;;;-1.70;99.90;;;;;;4989461;28;20272;-80
2021/04/15 03:15:40;;;;;;;0.60;0.60;;;-0.60;99.90;;;;;;4989411;28;20205;-80
2021/04/15 03:18:12;;;;;;;0.55;0.55;;;-1.70;99.90;;;;;;4988781;28;20257;-80
2021/04/15 03:20:47;;;;;;;0.50;0.50;;;-1.70;99.90;;;;;;4988580;28;20297;-80
2021/04/15 03:23:22;;;;;;;0.50;0.50;;;-1.80;99.90;;;;;;4988465;28;20202;-80
2021/04/15 03:25:50;;;;;;;0.60;0.60;;;-1.80;99.90;;;;;;4994405;28;20311;-80
2021/04/15 03:28:23;;;;;;;0.60;0.60;;;-1.80;99.90;;;;;;5006300;28;20225;-79
2021/04/15 03:30:54;;;;;;;0.60;0.60;;;-1.80;99.90;;;;;;5008090;28;20212;-80
2021/04/15 03:33:26;;;;;;;0.60;0.60;;;-1.80;99.90;;;;;;5009080;28;20209;-79
2021/04/15 03:35:58;;;;;;;0.55;0.55;;;-1.80;99.90;;;;;;5008717;28;20213;-78
2021/04/15 03:38:29;;;;;;;0.60;0.60;;;-1.90;99.90;;;;;;5006640;28;20664;-78
2021/04/15 03:41:00;;;;;;;0.50;0.50;;;-1.80;99.90;;;;;;5004410;28;20210;-78
2021/04/15 03:43:29;;;;;;;0.60;0.60;;;-1.60;99.90;;;;;;5002243;28;20198;-78
2021/04/15 03:46:07;;;;;;;0.60;0.60;;;-1.70;99.90;;;;;;4991475;28;20629;-78
2021/04/15 03:48:35;;;;;;;0.60;0.60;;;-1.70;99.90;;;;;;4987040;28;20226;-78
2021/04/15 03:51:07;;;;;;;0.60;0.60;;;-1.80;99.90;;;;;;4991974;28;20676;-78
2021/04/15 03:53:37;;;;;;;0.60;0.60;;;-1.80;99.90;;;;;;4987136;28;20210;-78
2021/04/15 03:56:17;;;;;;;0.50;0.50;;;-1.80;99.90;;;;;;4990634;28;20572;-78
2021/04/15 03:58:48;;;;;;;0.60;0.60;;;-1.70;99.90;;;;;;4993042;28;20199;-78
2021/04/15 04:01:20;;;;;;;0.60;0.60;;;-1.80;99.90;;;;;;4998158;28;20194;-78
2021/04/15 04:03:54;;;;;;;0.60;0.60;;;-1.90;99.90;;;;;;4995954;28;20565;-78
2021/04/15 04:06:24;;;;;;;0.60;0.60;;;-1.90;99.90;;;;;;4992588;28;20201;-78
2021/04/15 04:08:54;;;;;;;0.60;0.60;;;-1.90;99.90;;;;;;5003674;28;20214;-79
2021/04/15 04:11:23;;;;;;;0.60;0.60;;;-1.90;99.90;;;;;;5005049;28;20201;-78
2021/04/15 04:13:54;;;;;;;0.60;0.60;;;-1.90;99.90;;;;;;4998112;28;20280;-78
2021/04/15 04:16:24;;;;;;;0.57;0.57;;;-1.80;99.90;;;;;;4997564;28;20675;-78
2021/04/15 04:18:55;;;;;;;0.50;0.50;;;-1.80;99.90;;;;;;4998309;28;20220;-78
2021/04/15 04:21:35;;;;;;;0.60;0.60;;;-1.90;99.90;;;;;;4990419;28;20593;-78
2021/04/15 04:24:09;;;;;;;0.60;0.60;;;-1.90;99.90;;;;;;4986276;28;20205;-78
2021/04/15 04:26:40;;;;;;;0.60;0.60;;;-1.80;99.90;;;;;;4991324;28;20222;-79
2021/04/15 04:29:18;;;;;;;0.60;0.60;;;-1.80;99.90;;;;;;4986388;28;20225;-78
2021/04/15 04:31:48;;;;;;;0.60;0.60;;;-1.90;99.90;;;;;;4987702;28;20217;-78
2021/04/15 04:34:18;;;;;;;0.60;0.60;;;-2.10;99.90;;;;;;4985815;28;20202;-78
2021/04/15 04:36:49;;;;;;;0.60;0.60;;;-1.90;99.90;;;;;;4989637;28;20206;-78
2021/04/15 04:39:17;;;;;;;0.60;0.60;;;-2.00;99.90;;;;;;4987730;28;20202;-78
2021/04/15 04:41:54;;;;;;;0.60;0.60;;;-2.60;99.90;;;;;;4987511;28;20213;-78
2021/04/15 04:44:26;;;;;;;0.60;0.60;;;-1.90;99.90;;;;;;4986143;28;20201;-78
2021/04/15 04:47:03;;;;;;;0.50;0.50;;;-1.80;99.90;;;;;;4990906;28;20213;-78
2021/04/15 04:49:34;;;;;;;0.60;0.60;;;-1.60;99.90;;;;;;4988513;28;20316;-78
2021/04/15 04:52:06;;;;;;;0.60;0.60;;;-1.60;99.90;;;;;;4992393;28;20272;-78
2021/04/15 04:54:32;;;;;;;0.70;0.70;;;-1.60;99.90;;;;;;4993052;28;20253;-78
2021/04/15 04:57:07;;;;;;;0.60;0.60;;;-1.60;99.90;;;;;;4992295;28;20268;-79
2021/04/15 04:59:41;;;;;;;0.50;0.50;;;-1.70;99.90;;;;;;4992748;28;20206;-79
2021/04/15 05:02:08;;;;;;;0.57;0.57;;;-1.50;99.90;;;;;;4992235;28;20217;-79
2021/04/15 05:04:35;;;;;;;0.60;0.60;;;-1.40;99.90;;;;;;4992617;28;20217;-79
2021/04/15 05:07:04;;;;;;;0.50;0.50;;;-1.40;99.90;;;;;;4992406;28;20627;-79
2021/04/15 05:09:33;;;;;;;0.60;0.60;;;-1.40;99.90;;;;;;4991961;28;20234;-78
2021/04/15 05:12:00;;;;;;;0.60;0.60;;;-1.30;99.90;;;;;;4992014;28;20217;-80
2021/04/15 05:14:28;;;;;;;0.60;0.60;;;-1.20;99.90;;;;;;4991997;28;20429;-78
2021/04/15 05:17:00;;;;;;;0.60;0.60;;;-1.20;99.90;;;;;;4991796;28;20577;-79
2021/04/15 05:19:28;;;;;;;0.60;0.60;;;-1.10;99.90;;;;;;4990328;28;20206;-79
2021/04/15 05:21:55;;;;;;;0.50;0.50;;;-1.10;99.90;;;;;;4991851;28;20264;-79
2021/04/15 05:24:24;;;;;;;0.50;0.50;;;-1.00;99.90;;;;;;4991881;28;20217;-78
2021/04/15 05:26:51;;;;;;;0.60;0.60;;;-0.90;99.90;;;;;;5008699;28;20272;-79
2021/04/15 05:29:21;;;;;;;0.60;0.60;;;-0.40;99.90;;;;;;5011626;28;20226;-79
2021/04/15 05:31:50;;;;;;;0.50;0.50;;;0.90;99.90;;;;;;5011716;28;20228;-79
2021/04/15 05:34:23;;;;;;;0.60;0.60;;;0.30;99.90;;;;;;5011541;28;20656;-81
2021/04/15 05:36:53;;;;;;;0.57;0.57;;;0.10;99.90;;;;;;5011562;28;20260;-83
2021/04/15 05:39:21;;;;;;;0.60;0.60;;;-0.10;99.90;;;;;;5011491;28;20210;-79
2021/04/15 05:41:58;;;;;;;0.60;0.60;;;-0.30;99.90;;;;;;5011528;28;20264;-79
2021/04/15 05:44:32;;;;;;;0.60;0.60;;;-0.60;99.90;;;;;;5002545;28;20252;-78
2021/04/15 05:47:01;;;;;;;0.60;0.60;;;-0.30;99.90;;;;;;4986749;28;20663;-78
2021/04/15 05:49:31;;;;;;;0.60;0.60;;;2.00;99.90;;;;;;5010067;28;20229;-78
2021/04/15 05:52:05;;;;;;;0.60;0.60;;;0.00;99.90;;;;;;5009509;28;20205;-77
2021/04/15 05:54:33;;;;;;;0.60;0.60;;;0.00;99.90;;;;;;5010518;28;20205;-77
2021/04/15 05:57:04;;;;;;;0.60;0.60;;;0.10;99.90;;;;;;5007847;28;20256;-77
2021/04/15 05:59:49;;;;;;;0.60;0.60;;;0.30;99.90;;;;;;5010821;28;20255;-78
2021/04/15 06:02:30;;;;;;;0.50;0.50;;;1.20;99.90;;;;;;5006937;28;20261;-79
2021/04/15 06:04:59;;;;;;;0.60;0.60;;;1.60;99.90;;;;;;5010588;28;20205;-82
2021/04/15 06:07:27;;;;;;;0.60;0.60;;;1.80;99.90;;;;;;5010480;28;20671;-80
2021/04/15 06:09:54;;;;;;;0.60;0.60;;;1.90;99.90;;;;;;5010280;28;20280;-79
2021/04/15 06:13:18;;;;;;;;;;;;;;;;;;;;;
2021/04/15 06:15:54;;;;;;;0.55;0.55;;;1.90;99.90;;;;;;5001953;28;20210;-80
2021/04/15 06:18:26;;;;;;;0.60;0.60;;;1.80;99.90;;;;;;4998060;28;20261;-80
2021/04/15 06:20:57;;;;;;;0.60;0.60;;;1.80;99.90;;;;;;5002701;28;20719;-80
2021/04/15 06:23:29;;;;;;;0.65;0.65;;;1.70;99.90;;;;;;5001317;28;20217;-80
2021/04/15 06:25:56;;;;;;;0.50;0.50;;;1.70;99.90;;;;;;4996832;28;20477;-80
2021/04/15 06:28:25;;;;;;;0.60;0.60;;;1.60;99.90;;;;;;5009793;28;20237;-80
2021/04/15 06:31:04;;;;;;;0.60;0.60;;;1.60;99.90;;;;;;5009548;28;20198;-80
2021/04/15 06:33:32;;;;;;;0.60;0.60;;;1.50;99.90;;;;;;5010503;28;20201;-80
2021/04/15 06:36:00;;;;;;;0.57;0.57;;;1.50;99.90;;;;;;5009915;28;20587;-80
2021/04/15 06:38:36;;;;;;;0.60;0.60;;;1.10;99.90;;;;;;5009098;28;20791;-80
2021/04/15 06:41:19;;;;;;;0.60;0.60;;;1.50;99.90;;;;;;5010173;28;20201;-80
2021/04/15 06:44:09;;;;;;;0.60;0.60;;;1.50;99.90;;;;;;5010247;28;20300;-80
2021/04/15 06:47:06;;;;;;;0.50;0.50;;;1.40;99.90;;;;;;5009043;28;20606;-80
2021/04/15 06:50:00;;;;;;;0.60;0.60;;;1.60;99.90;;;;;;5009805;28;20588;-80
2021/04/15 06:52:34;;;;;;;0.52;0.52;;;1.70;99.90;;;;;;5010235;28;20870;-79
2021/04/15 06:55:13;;;;;;;0.50;0.50;;;1.80;99.90;;;;;;5009163;28;20202;-81
2021/04/15 06:57:51;;;;;;;0.60;0.60;;;1.90;99.90;;;;;;5000592;28;20209;-80
2021/04/15 07:00:48;;;;;;;0.50;0.50;;;2.10;99.90;;;;;;5000100;28;20660;-81
2021/04/15 07:03:34;;;;;;;0.60;0.60;;;2.50;99.90;;;;;;4995494;28;20281;-80
2021/04/15 07:06:06;;;;;;;0.60;0.60;;;2.90;99.90;;;;;;5003208;28;20276;-81
2021/04/15 07:08:50;;;;;;;0.60;0.60;;;3.30;99.90;;;;;;5007831;28;20205;-84
2021/04/15 07:11:36;;;;;;;0.60;0.60;;;3.20;99.90;;;;;;5009544;28;20202;-79
2021/04/15 07:14:24;;;;;;;0.60;0.60;;;3.60;99.90;;;;;;5009835;28;20210;-79
2021/04/15 07:17:23;;;;;;;0.50;0.50;;;3.80;99.90;;;;;;5008945;28;20237;-79
2021/04/15 07:20:12;;;;;;;0.60;0.60;;;4.00;99.90;;;;;;5005932;28;20236;-79
2021/04/15 07:23:00;;;;;;;0.60;0.60;;;4.00;99.90;;;;;;5005748;28;20202;-79
2021/04/15 07:25:41;;;;;;;0.60;0.60;;;4.10;99.90;;;;;;5005166;28;20242;-79
2021/04/15 07:29:01;;;;;;;0.60;0.60;;;4.20;99.90;;;;;;5001327;28;20508;-79
2021/04/15 07:31:44;;;;;;;0.60;0.60;;;4.20;99.90;;;;;;4876791;29;21043;-79
2021/04/15 07:34:39;;;;;;;0.60;0.60;;;4.30;99.90;;;;;;4993432;28;20212;-79
2021/04/15 07:37:18;;;;;;;0.60;0.60;;;4.30;99.90;;;;;;5000378;28;20582;-79
2021/04/15 07:40:10;;;;;;;0.60;0.60;;;4.30;99.90;;;;;;5006276;28;20197;-79
2021/04/15 07:42:59;;;;;;;0.50;0.50;;;4.40;99.90;;;;;;4972205;28;20210;-79
2021/04/15 07:45:30;;;;;;;0.60;0.60;;;4.30;99.90;;;;;;5007916;28;20209;-78
2021/04/15 07:48:20;;;;;;;0.60;0.60;;;4.50;99.90;;;;;;5009212;28;20213;-79
2021/04/15 07:51:34;;;;;;;0.50;0.50;;;4.80;99.90;;;;;;5009231;28;20226;-79
2021/04/15 07:54:28;;;;;;;0.60;0.60;;;4.90;99.90;;;;;;4929163;29;20247;-78
2021/04/15 07:57:47;;;;;;;0.60;0.60;;;5.10;99.90;;;;;;4928940;29;20208;-78
2021/04/15 08:00:25;;;;;;;0.50;0.50;;;5.10;99.90;;;;;;5007284;28;20194;-79
2021/04/15 08:03:14;;;;;;;0.60;0.60;;;5.00;99.90;;;;;;5008897;28;20575;-79
2021/04/15 08:05:51;;;;;;;0.60;0.60;;;5.00;99.90;;;;;;5008887;28;20205;-79
2021/04/15 08:08:38;;;;;;;0.60;0.60;;;5.20;99.90;;;;;;5008914;28;20364;-79
2021/04/15 08:11:30;;;;;;;0.60;0.60;;;5.40;99.90;;;;;;5008525;28;20264;-79
2021/04/15 08:14:48;;;;;;;0.50;0.50;;;5.70;99.90;;;;;;5009710;28;20660;-80
2021/04/15 08:17:26;;;;;;;0.57;0.57;;;5.60;99.90;;;;;;5008489;28;20209;-80
2021/04/15 08:20:12;;;;;;;0.60;0.60;;;5.40;99.90;;;;;;5008700;28;20217;-80
2021/04/15 08:23:09;;;;;;;0.50;0.50;;;5.60;99.90;;;;;;5008595;28;20208;-81
2021/04/15 08:25:47;;;;;;;0.60;0.60;;;5.70;99.90;;;;;;5010773;28;20233;-81
2021/04/15 08:28:34;;;;;;;0.60;0.60;;;5.90;99.90;;;;;;5012009;28;20225;-80
2021/04/15 08:31:10;;;;;;;0.57;0.57;;;6.00;99.90;;;;;;5005708;28;20601;-80
2021/04/15 08:33:51;;;;;;;0.60;0.60;;;6.00;99.90;;;;;;5009106;28;20221;-80
2021/04/15 08:36:51;;;;;;;0.60;0.60;;;5.80;99.90;;;;;;5000771;28;20212;-79
2021/04/15 08:39:48;;;;;;;0.55;0.55;;;6.00;99.90;;;;;;5002919;28;20221;-79
2021/04/15 08:42:38;;;;;;;0.60;0.60;;;6.10;99.90;;;;;;4984947;28;20255;-79
2021/04/15 08:45:19;;;;;;;0.50;0.50;;;6.00;99.90;;;;;;5008146;28;20205;-79
2021/04/15 08:47:56;;;;;;;0.50;0.50;;;6.00;99.90;;;;;;5010443;28;20208;-79
2021/04/15 08:50:34;;;;;;;0.60;0.60;;;6.00;99.90;;;;;;5011175;28;20279;-79
2021/04/15 08:53:11;;;;;;;0.60;0.60;;;5.90;99.90;;;;;;5012574;28;20209;-79
2021/04/15 08:55:44;;;;;;;0.60;0.60;;;6.00;99.90;;;;;;5011814;28;20675;-79
2021/04/15 08:58:32;;;;;;;0.60;0.60;;;6.10;99.90;;;;;;5006868;28;20471;-78
2021/04/15 09:01:04;;;;;;;0.60;0.60;;;6.30;99.90;;;;;;4995695;28;20233;-79
2021/04/15 09:03:40;;;;;;;0.50;0.50;;;6.40;99.90;;;;;;5005472;28;20666;-79
2021/04/15 09:06:20;;;;;;;0.60;0.60;;;6.40;99.90;;;;;;4997666;28;20197;-79
2021/04/15 09:09:14;;;;;;;0.50;0.50;;;6.90;99.90;;;;;;5004877;28;20209;-79
2021/04/15 09:11:52;;;;;;;0.60;0.60;;;6.90;99.90;;;;;;4991761;28;20265;-79
2021/04/15 09:14:30;;;;;;;0.60;0.60;;;6.90;99.90;;;;;;5006345;28;20209;-79
2021/04/15 09:17:00;;;;;;;0.50;0.50;;;7.20;99.90;;;;;;5009836;28;20205;-78
2021/04/15 09:19:41;;;;;;;0.50;0.50;;;7.10;99.90;;;;;;5010262;28;20660;-78
2021/04/15 09:22:22;;;;;;;0.60;0.60;;;7.40;99.90;;;;;;5010425;28;20198;-78
2021/04/15 09:24:55;;;;;;;0.60;0.60;;;7.40;99.90;;;;;;5010656;28;20220;-78
2021/04/15 09:27:29;;;;;;;0.60;0.60;;;7.50;99.90;;;;;;5008237;28;20237;-78
2021/04/15 09:30:07;;;;;;;0.60;0.60;;;7.60;99.90;;;;;;5009449;28;20660;-78
2021/04/15 09:32:41;;;;;;;0.60;0.60;;;7.50;99.90;;;;;;5010561;28;20197;-78
2021/04/15 09:35:13;;;;;;;0.60;0.60;;;7.40;99.90;;;;;;5008299;28;20270;-78
2021/04/15 09:38:18;;;;;;;0.60;0.60;;;7.90;99.90;;;;;;5009842;28;20214;-78
2021/04/15 09:40:57;;;;;;;0.50;0.50;;;7.90;99.90;;;;;;5009973;28;20201;-78
2021/04/15 09:44:11;;;;;;;0.60;0.60;;;8.00;99.90;;;;;;5010465;28;20217;-78
2021/04/15 09:46:53;;;;;;;0.50;0.50;;;8.20;99.90;;;;;;4929078;29;20237;-78
2021/04/15 09:49:34;;;;;;;0.60;0.60;;;8.40;99.90;;;;;;4999252;28;20225;-78
2021/04/15 09:52:17;;;;;;;0.60;0.60;;;8.30;99.90;;;;;;5008012;28;20206;-79
2021/04/15 09:54:57;;;;;;;0.60;0.60;;;8.40;99.90;;;;;;5010542;28;20213;-79
2021/04/15 09:57:35;;;;;;;0.60;0.60;;;8.10;99.90;;;;;;5004378;28;20236;-79
2021/04/15 10:00:15;;;;;;;0.60;0.60;;;7.90;99.90;;;;;;5008297;28;20232;-79
2021/04/15 10:03:13;;;;;;;0.60;0.60;;;8.00;99.90;;;;;;5000734;28;20398;-80
2021/04/15 10:06:02;;;;;;;0.60;0.60;;;8.20;99.90;;;;;;4960243;28;20210;-81
2021/04/15 10:08:37;;;;;;;0.60;0.60;;;8.20;99.90;;;;;;4996377;28;20267;-78
2021/04/15 10:11:19;;;;;;;0.50;0.50;;;8.50;99.90;;;;;;5009165;28;20279;-78
2021/04/15 10:14:05;;;;;;;0.60;0.60;;;8.70;99.90;;;;;;5009978;28;20209;-78
2021/04/15 10:16:38;;;;;;;0.60;0.60;;;8.70;99.90;;;;;;5008603;28;20276;-78
2021/04/15 10:19:47;;;;;;;0.50;0.50;;;8.50;99.90;;;;;;5009564;28;20206;-79
2021/04/15 10:22:22;;;;;;;0.60;0.60;;;8.40;99.90;;;;;;4997430;28;20205;-79
2021/04/15 10:24:51;;;;;;;0.60;0.60;;;8.40;99.90;;;;;;5009378;28;20714;-80
2021/04/15 10:28:08;;;;;;;0.60;0.60;;;8.20;99.90;;;;;;5009115;28;20773;-79
2021/04/15 10:31:10;;;;;;;0.60;0.60;;;8.20;99.90;;;;;;5008403;28;20706;-82
2021/04/15 10:33:52;;;;;;;0.60;0.60;;;8.30;99.90;;;;;;4940656;28;20218;-78
2021/04/15 10:36:45;;;;;;;0.60;0.60;;;8.10;99.90;;;;;;4994300;28;20206;-78
2021/04/15 10:39:51;;;;;;;0.60;0.60;;;8.20;99.90;;;;;;5009394;28;20566;-78
2021/04/15 10:43:08;;;;;;;0.60;0.60;;;8.20;99.90;;;;;;4990402;28;20224;-78
2021/04/15 10:46:04;;;;;;;0.60;0.60;;;8.40;99.90;;;;;;4908627;29;20209;-78
2021/04/15 10:48:42;;;;;;;0.50;0.50;;;8.40;99.90;;;;;;4900970;29;20206;-78
2021/04/15 10:51:19;;;;;;;0.55;0.55;;;8.40;99.90;;;;;;4982560;28;20241;-79
2021/04/15 10:53:52;;;;;;;0.55;0.55;;;8.50;99.90;;;;;;4998270;28;20198;-78
2021/04/15 10:56:34;;;;;;;0.60;0.60;;;8.50;99.90;;;;;;5008565;28;20280;-78
2021/04/15 10:59:27;;;;;;;0.60;0.60;;;8.60;99.90;;;;;;5008679;28;20209;-78
2021/04/15 11:02:24;;;;;;;0.60;0.60;;;8.50;99.90;;;;;;5006664;28;20209;-78
2021/04/15 11:04:52;;;;;;;0.60;0.60;;;8.40;99.90;;;;;;5006264;28;20475;-78
2021/04/15 11:07:24;;;;;;;0.60;0.60;;;8.40;99.90;;;;;;5006372;28;20220;-78
2021/04/15 11:09:52;;;;;;;0.55;0.55;;;8.40;99.90;;;;;;5003567;28;20229;-78
2021/04/15 11:12:23;;;;;;;0.60;0.60;;;8.50;99.90;;;;;;5002914;28;20228;-78
2021/04/15 11:15:00;;;;;;;0.60;0.60;;;8.60;99.90;;;;;;4996507;28;20202;-78
2021/04/15 11:17:29;;;;;;;0.50;0.50;;;8.70;99.90;;;;;;4999942;28;20202;-78
2021/04/15 11:20:35;;;;;;;0.60;0.60;;;8.70;99.90;;;;;;5001604;28;20220;-78
2021/04/15 11:23:06;;;;;;;0.60;0.60;;;8.80;99.90;;;;;;5001433;28;20208;-78
2021/04/15 11:25:39;;;;;;;0.60;0.60;;;8.60;99.90;;;;;;5003838;28;20225;-78
2021/04/15 11:28:12;;;;;;;0.50;0.50;;;8.60;99.90;;;;;;5004237;28;20646;-78
2021/04/15 11:30:43;;;;;;;0.50;0.50;;;8.50;99.90;;;;;;5006220;28;20234;-78
2021/04/15 11:33:12;;;;;;;0.60;0.60;;;8.40;99.90;;;;;;5008619;28;20214;-78
2021/04/15 11:35:39;;;;;;;0.50;0.50;;;8.40;99.90;;;;;;5007871;28;20288;-78
2021/04/15 11:38:20;;;;;;;0.55;0.55;;;8.50;99.90;;;;;;5008456;28;20316;-78
2021/04/15 11:40:48;;;;;;;0.60;0.60;;;8.50;99.90;;;;;;5008361;28;20201;-77
2021/04/15 11:43:25;;;;;;;0.60;0.60;;;8.70;99.90;;;;;;5008842;28;20205;-77
2021/04/15 11:45:53;;;;;;;0.55;0.55;;;8.90;99.90;;;;;;5003555;28;20213;-78
2021/04/15 11:48:22;;;;;;;0.50;0.50;;;9.40;99.90;;;;;;5008077;28;20194;-78
2021/04/15 11:50:49;;;;;;;0.55;0.55;;;9.60;99.90;;;;;;5008128;28;20591;-77
2021/04/15 11:53:44;;;;;;;0.60;0.60;;;9.60;94.30;;;;;;5008705;28;20205;-77
2021/04/15 11:56:29;;;;;;;0.60;0.60;;;10.00;95.90;;;;;;5008257;28;20213;-78
2021/04/15 11:59:13;;;;;;;0.60;0.60;;;9.90;94.00;;;;;;4996059;28;20198;-78
2021/04/15 12:01:39;;;;;;;0.60;0.60;;;9.70;94.00;;;;;;4998784;28;20221;-78
2021/04/15 12:04:07;;;;;;;0.60;0.60;;;9.50;94.70;;;;;;5011644;28;20201;-78
2021/04/15 12:06:38;;;;;;;0.60;0.60;;;9.30;94.30;;;;;;5011446;28;20209;-78
2021/04/15 12:09:07;;;;;;;0.60;0.60;;;9.10;94.70;;;;;;5011670;28;20439;-78
2021/04/15 12:11:37;;;;;;;0.53;0.53;;;9.30;95.10;;;;;;5010954;28;20943;-80
2021/04/15 12:14:09;;;;;;;0.50;0.50;;;9.40;96.00;;;;;;5011508;28;20452;-80
2021/04/15 12:16:46;;;;;;;0.60;0.60;;;9.60;95.40;;;;;;5010745;28;20600;-81
2021/04/15 12:19:20;;;;;;;0.60;0.60;;;9.80;94.30;;;;;;5012181;28;20254;-80
2021/04/15 12:21:51;;;;;;;0.60;0.60;;;9.70;95.10;;;;;;5011295;28;20599;-79
2021/04/15 12:24:25;;;;;;;0.60;0.60;;;9.70;96.20;;;;;;5011340;28;20194;-79
2021/04/15 12:26:56;;;;;;;0.60;0.60;;;9.50;94.10;;;;;;5009005;28;20233;-79
2021/04/15 12:29:31;;;;;;;0.60;0.60;;;9.40;94.80;;;;;;5011245;28;20291;-77
2021/04/15 12:32:04;;;;;;;0.60;0.60;;;9.40;94.40;;;;;;5011454;28;20216;-77
2021/04/15 12:34:42;;;;;;;0.60;0.60;;;9.30;94.20;;;;;;5011786;28;20276;-78
2021/04/15 12:37:13;;;;;;;0.60;0.60;;;9.40;93.70;;;;;;5012040;28;20213;-77
2021/04/15 12:40:17;;;;;;;0.50;0.50;;;9.40;91.70;;;;;;5012108;28;20206;-77
2021/04/15 12:42:45;;;;;;;0.60;0.60;;;9.90;91.90;;;;;;5000828;28;20208;-78
2021/04/15 12:45:19;;;;;;;0.60;0.60;;;10.10;93.50;;;;;;5011319;28;20645;-77
2021/04/15 12:47:46;;;;;;;0.60;0.60;;;10.30;93.80;;;;;;5012126;28;20526;-80
2021/04/15 12:50:12;;;;;;;0.60;0.60;;;10.20;91.90;;;;;;5011931;28;20624;-80
2021/04/15 12:52:39;;;;;;;0.60;0.60;;;10.30;92.40;;;;;;5011374;28;20214;-78
2021/04/15 12:55:13;;;;;;;0.60;0.60;;;9.70;92.10;;;;;;5011884;28;20225;-78
2021/04/15 12:57:40;;;;;;;0.60;0.60;;;10.00;94.00;;;;;;5010240;28;20213;-79
2021/04/15 13:00:09;;;;;;;0.60;0.60;;;9.50;92.20;;;;;;5011233;28;20260;-78
2021/04/15 13:02:36;;;;;;;0.60;0.60;;;9.70;94.20;;;;;;5009290;28;20229;-78
2021/04/15 13:05:07;;;;;;;0.60;0.60;;;9.70;94.30;;;;;;5008671;28;20240;-78
2021/04/15 13:07:37;;;;;;;0.57;0.57;;;9.60;94.10;;;;;;5008074;28;20633;-78
2021/04/15 13:10:30;;;;;;;0.55;0.55;;;9.60;94.70;;;;;;5011725;28;20229;-78
2021/04/15 13:12:59;;;;;;;0.60;0.60;;;9.50;94.40;;;;;;5012202;28;20202;-78
2021/04/15 13:15:46;;;;;;;0.60;0.60;;;9.10;95.20;;;;;;5009301;28;20202;-78
2021/04/15 13:18:35;;;;;;;0.55;0.55;;;9.40;96.80;;;;;;5006781;28;20236;-78
2021/04/15 13:21:29;;;;;;;0.50;0.50;;;9.10;95.40;;;;;;5011675;28;20202;-78
2021/04/15 13:23:56;;;;;;;0.60;0.60;;;9.20;96.40;;;;;;5008401;28;20255;-78
2021/04/15 13:26:35;;;;;;;0.60;0.60;;;9.20;97.00;;;;;;5011296;28;20229;-77
2021/04/15 13:29:12;;;;;;;0.55;0.55;;;9.30;97.90;;;;;;5011497;28;20216;-78
2021/04/15 13:31:43;;;;;;;0.60;0.60;;;9.30;97.70;;;;;;5010481;28;20262;-77
2021/04/15 13:34:11;;;;;;;0.60;0.60;;;9.50;97.90;;;;;;5011329;28;20240;-77
2021/04/15 13:36:38;;;;;;;0.52;0.52;;;9.90;97.30;;;;;;5011017;28;20428;-77
2021/04/15 13:39:35;;;;;;;0.60;0.60;;;9.80;95.10;;;;;;5011213;28;20209;-77
2021/04/15 13:42:26;;;;;;;0.60;0.60;;;9.70;92.80;;;;;;5011045;28;20258;-77
2021/04/15 13:44:56;;;;;;;0.60;0.60;;;9.40;92.60;;;;;;5009608;28;20212;-78
2021/04/15 13:47:49;;;;;;;0.60;0.60;;;9.30;93.30;;;;;;5011129;28;20209;-77